Brownsville, Illinois
Current Conditions -  °F | °C
As of 4:55 PM on Thursday 23 Oct 2014 (Local Time) from KCUL Reporting Station
Clear Clear  
Wind Chill: 61°   Ceiling: Unl
Heat Index: 61°   Visibility: 10mi
Dew Point: 43°   Wind: 0mph
Humidity: 52%   Direction: NA
Pressure: 30.13"   Gusts: NA
Location:  38.0491°N, 88.1124°W
Report Text: KCUL 232155Z AUTO 00000KT 10SM CLR 16/06 A3013 RMK AO2 T01620063
Loading
Personal Weather Stations






























Interactive Weather Map
Tropical Storm Tracking
New forecast layout! Learn more

10-Day Weather Forecast

Advertisements
Track Severe Weather on mobile